sensor_id;sensor_type;location;lat;lon;timestamp;pressure;altitude;pressure_sealevel;temperature;humidity
39773;BME280;25451;51.960;6.250;2022-12-01T00:00:26;102574.72;;;7.10;79.93
39773;BME280;25451;51.960;6.250;2022-12-01T00:02:51;102569.22;;;7.10;80.88
39773;BME280;25451;51.960;6.250;2022-12-01T00:05:17;102569.69;;;7.14;80.12
39773;BME280;25451;51.960;6.250;2022-12-01T00:07:42;102563.03;;;7.08;80.31
39773;BME280;25451;51.960;6.250;2022-12-01T00:10:10;102569.03;;;7.12;80.39
39773;BME280;25451;51.960;6.250;2022-12-01T00:12:52;102564.25;;;7.06;80.26
39773;BME280;25451;51.960;6.250;2022-12-01T00:15:17;102572.63;;;7.12;80.51
39773;BME280;25451;51.960;6.250;2022-12-01T00:17:42;102559.78;;;7.05;80.62
39773;BME280;25451;51.960;6.250;2022-12-01T00:20:10;102570.91;;;7.11;80.12
39773;BME280;25451;51.960;6.250;2022-12-01T00:22:36;102570.91;;;7.11;80.85
39773;BME280;25451;51.960;6.250;2022-12-01T00:25:03;102569.88;;;7.12;80.25
39773;BME280;25451;51.960;6.250;2022-12-01T00:27:28;102574.50;;;7.12;80.46
39773;BME280;25451;51.960;6.250;2022-12-01T00:29:54;102564.94;;;7.08;80.53
39773;BME280;25451;51.960;6.250;2022-12-01T00:32:19;102556.00;;;7.06;80.41
39773;BME280;25451;51.960;6.250;2022-12-01T00:34:44;102558.75;;;7.06;80.25
39773;BME280;25451;51.960;6.250;2022-12-01T00:37:09;102569.03;;;7.12;80.50
39773;BME280;25451;51.960;6.250;2022-12-01T00:39:35;102569.03;;;7.12;80.46
39773;BME280;25451;51.960;6.250;2022-12-01T00:42:00;102565.41;;;7.11;80.70
39773;BME280;25451;51.960;6.250;2022-12-01T00:44:25;102564.56;;;7.11;80.90
39773;BME280;25451;51.960;6.250;2022-12-01T00:46:51;102562.66;;;7.11;80.46
39773;BME280;25451;51.960;6.250;2022-12-01T00:49:16;102570.03;;;7.11;80.69
39773;BME280;25451;51.960;6.250;2022-12-01T00:51:41;102571.78;;;7.12;80.68
39773;BME280;25451;51.960;6.250;2022-12-01T00:54:07;102563.88;;;7.09;80.42
39773;BME280;25451;51.960;6.250;2022-12-01T00:56:32;102568.16;;;7.11;80.53
39773;BME280;25451;51.960;6.250;2022-12-01T00:58:57;102567.50;;;7.09;80.55
39773;BME280;25451;51.960;6.250;2022-12-01T01:01:23;102562.72;;;7.03;80.38
39773;BME280;25451;51.960;6.250;2022-12-01T01:03:48;102565.13;;;7.06;80.85
39773;BME280;25451;51.960;6.250;2022-12-01T01:06:13;102575.53;;;7.11;80.44
39773;BME280;25451;51.960;6.250;2022-12-01T01:08:39;102571.44;;;7.07;80.89
39773;BME280;25451;51.960;6.250;2022-12-01T01:11:05;102557.41;;;7.02;80.75
39773;BME280;25451;51.960;6.250;2022-12-01T01:13:31;102555.69;;;7.01;80.49
39773;BME280;25451;51.960;6.250;2022-12-01T01:15:58;102567.53;;;7.01;80.63
39773;BME280;25451;51.960;6.250;2022-12-01T01:18:24;102572.16;;;7.01;80.69
39773;BME280;25451;51.960;6.250;2022-12-01T01:20:57;102577.50;;;7.02;81.14
39773;BME280;25451;51.960;6.250;2022-12-01T01:23:23;102583.13;;;7.01;80.63
39773;BME280;25451;51.960;6.250;2022-12-01T01:25:48;102589.69;;;7.00;80.84
39773;BME280;25451;51.960;6.250;2022-12-01T01:28:13;102595.16;;;7.00;80.33
39773;BME280;25451;51.960;6.250;2022-12-01T01:30:39;102585.19;;;6.99;80.54
39773;BME280;25451;51.960;6.250;2022-12-01T01:33:05;102585.19;;;6.99;80.88
39773;BME280;25451;51.960;6.250;2022-12-01T01:35:30;102594.78;;;7.03;80.84
39773;BME280;25451;51.960;6.250;2022-12-01T01:37:55;102582.16;;;6.94;80.29
39773;BME280;25451;51.960;6.250;2022-12-01T01:40:21;102565.53;;;6.87;81.01
39773;BME280;25451;51.960;6.250;2022-12-01T01:42:46;102595.84;;;7.02;80.52
39773;BME280;25451;51.960;6.250;2022-12-01T01:45:20;102596.03;;;7.00;80.94
39773;BME280;25451;51.960;6.250;2022-12-01T01:47:49;102594.78;;;7.03;81.27
39773;BME280;25451;51.960;6.250;2022-12-01T01:50:17;102603.56;;;7.06;81.04
39773;BME280;25451;51.960;6.250;2022-12-01T01:52:47;102593.09;;;7.02;80.35
39773;BME280;25451;51.960;6.250;2022-12-01T01:55:15;102593.28;;;7.00;80.45
39773;BME280;25451;51.960;6.250;2022-12-01T01:57:41;102593.78;;;7.04;80.63
39773;BME280;25451;51.960;6.250;2022-12-01T02:00:10;102592.72;;;7.05;80.37
39773;BME280;25451;51.960;6.250;2022-12-01T02:02:38;102585.53;;;7.04;81.26
39773;BME280;25451;51.960;6.250;2022-12-01T02:05:08;102583.66;;;7.04;81.26
39773;BME280;25451;51.960;6.250;2022-12-01T02:07:38;102586.41;;;7.04;80.94
39773;BME280;25451;51.960;6.250;2022-12-01T02:10:05;102584.88;;;7.02;81.14
39773;BME280;25451;51.960;6.250;2022-12-01T02:16:16;102584.69;;;7.03;81.25
39773;BME280;25451;51.960;6.250;2022-12-01T02:31:48;102594.13;;;7.01;81.30
39773;BME280;25451;51.960;6.250;2022-12-01T02:34:23;102586.44;;;6.96;80.87
39773;BME280;25451;51.960;6.250;2022-12-01T02:37:23;102586.94;;;7.00;81.01
39773;BME280;25451;51.960;6.250;2022-12-01T02:40:01;102596.03;;;7.00;80.76
39773;BME280;25451;51.960;6.250;2022-12-01T02:42:36;102598.78;;;7.00;80.92
39773;BME280;25451;51.960;6.250;2022-12-01T02:45:44;102590.69;;;6.99;80.72
39773;BME280;25451;51.960;6.250;2022-12-01T02:48:21;102587.28;;;6.97;80.92
39773;BME280;25451;51.960;6.250;2022-12-01T02:50:49;102585.75;;;6.94;80.94
39773;BME280;25451;51.960;6.250;2022-12-01T02:53:17;102593.81;;;6.96;80.99
39773;BME280;25451;51.960;6.250;2022-12-01T02:55:47;102593.81;;;6.96;80.67
39773;BME280;25451;51.960;6.250;2022-12-01T02:58:13;102584.91;;;6.94;80.94
39773;BME280;25451;51.960;6.250;2022-12-01T03:00:41;102582.16;;;6.94;80.85
39773;BME280;25451;51.960;6.250;2022-12-01T03:03:21;102596.38;;;6.97;80.69
39773;BME280;25451;51.960;6.250;2022-12-01T03:06:11;102592.94;;;6.95;80.78
39773;BME280;25451;51.960;6.250;2022-12-01T03:14:38;102605.81;;;6.95;81.25
39773;BME280;25451;51.960;6.250;2022-12-01T03:17:11;102602.06;;;6.96;81.29
39773;BME280;25451;51.960;6.250;2022-12-01T03:19:47;102596.91;;;6.93;80.39
39773;BME280;25451;51.960;6.250;2022-12-01T03:22:27;102591.78;;;6.90;80.73
39773;BME280;25451;51.960;6.250;2022-12-01T03:24:54;102563.34;;;6.75;80.57
39773;BME280;25451;51.960;6.250;2022-12-01T03:27:26;102596.22;;;6.91;80.71
39773;BME280;25451;51.960;6.250;2022-12-01T03:29:55;102587.31;;;6.89;80.93
39773;BME280;25451;51.960;6.250;2022-12-01T03:32:27;102596.06;;;6.92;80.84
39773;BME280;25451;51.960;6.250;2022-12-01T03:34:57;102595.88;;;6.94;80.92
39773;BME280;25451;51.960;6.250;2022-12-01T03:37:38;102593.13;;;6.94;80.71
39773;BME280;25451;51.960;6.250;2022-12-01T03:40:07;102593.13;;;6.94;80.90
39773;BME280;25451;51.960;6.250;2022-12-01T03:42:37;102589.72;;;6.92;80.90
39773;BME280;25451;51.960;6.250;2022-12-01T03:45:09;102590.41;;;6.94;80.58
39773;BME280;25451;51.960;6.250;2022-12-01T03:47:37;102592.28;;;6.93;80.72
39773;BME280;25451;51.960;6.250;2022-12-01T03:50:06;102596.56;;;6.96;80.47
39773;BME280;25451;51.960;6.250;2022-12-01T03:52:37;102591.06;;;6.96;80.97
39773;BME280;25451;51.960;6.250;2022-12-01T03:55:09;102594.69;;;6.96;80.75
39773;BME280;25451;51.960;6.250;2022-12-01T03:57:51;102587.31;;;6.89;80.36
39773;BME280;25451;51.960;6.250;2022-12-01T04:00:19;102594.00;;;6.94;80.56
39773;BME280;25451;51.960;6.250;2022-12-01T04:02:45;102598.25;;;6.97;81.00
39773;BME280;25451;51.960;6.250;2022-12-01T04:05:11;102593.31;;;6.92;80.61
39773;BME280;25451;51.960;6.250;2022-12-01T04:07:38;102605.81;;;6.95;80.36
39773;BME280;25451;51.960;6.250;2022-12-01T04:10:04;102594.72;;;6.88;80.70
39773;BME280;25451;51.960;6.250;2022-12-01T04:12:30;102603.44;;;6.92;80.71
39773;BME280;25451;51.960;6.250;2022-12-01T04:15:02;102591.25;;;6.86;80.87
39773;BME280;25451;51.960;6.250;2022-12-01T04:17:28;102605.31;;;6.91;80.94
39773;BME280;25451;51.960;6.250;2022-12-01T04:19:54;102606.19;;;6.92;80.38
39773;BME280;25451;51.960;6.250;2022-12-01T04:22:20;102592.13;;;6.87;80.60
39773;BME280;25451;51.960;6.250;2022-12-01T04:24:45;102571.59;;;6.75;80.96
39773;BME280;25451;51.960;6.250;2022-12-01T04:27:11;102591.09;;;6.88;80.49
39773;BME280;25451;51.960;6.250;2022-12-01T04:29:36;102598.13;;;6.90;81.13
39773;BME280;25451;51.960;6.250;2022-12-01T04:32:02;102596.59;;;6.88;81.08
39773;BME280;25451;51.960;6.250;2022-12-01T04:34:27;102583.56;;;6.82;80.93
39773;BME280;25451;51.960;6.250;2022-12-01T04:36:53;102591.44;;;6.85;80.94
39773;BME280;25451;51.960;6.250;2022-12-01T04:39:18;102601.03;;;6.89;81.19
39773;BME280;25451;51.960;6.250;2022-12-01T04:41:43;102589.22;;;6.88;81.35
39773;BME280;25451;51.960;6.250;2022-12-01T04:44:09;102591.97;;;6.88;80.97
39773;BME280;25451;51.960;6.250;2022-12-01T04:46:35;102588.34;;;6.88;80.98
39773;BME280;25451;51.960;6.250;2022-12-01T04:49:00;102586.63;;;6.87;80.78
39773;BME280;25451;51.960;6.250;2022-12-01T04:51:26;102591.63;;;6.83;80.93
39773;BME280;25451;51.960;6.250;2022-12-01T04:53:51;102573.31;;;6.76;80.74
39773;BME280;25451;51.960;6.250;2022-12-01T04:56:16;102601.41;;;6.86;80.80
39773;BME280;25451;51.960;6.250;2022-12-01T04:58:42;102593.50;;;6.83;80.65
39773;BME280;25451;51.960;6.250;2022-12-01T05:01:10;102593.16;;;6.86;80.81
39773;BME280;25451;51.960;6.250;2022-12-01T05:03:37;102574.16;;;6.76;81.03
39773;BME280;25451;51.960;6.250;2022-12-01T05:06:15;102591.13;;;6.80;80.80
39773;BME280;25451;51.960;6.250;2022-12-01T05:08:40;102589.06;;;6.82;80.99
39773;BME280;25451;51.960;6.250;2022-12-01T05:11:06;102595.91;;;6.86;80.78
39773;BME280;25451;51.960;6.250;2022-12-01T05:13:33;102596.06;;;6.84;81.21
39773;BME280;25451;51.960;6.250;2022-12-01T05:16:07;102596.06;;;6.84;80.95
39773;BME280;25451;51.960;6.250;2022-12-01T05:18:33;102597.97;;;6.84;80.71
39773;BME280;25451;51.960;6.250;2022-12-01T05:20:58;102583.25;;;6.77;80.81
39773;BME280;25451;51.960;6.250;2022-12-01T05:23:26;102594.56;;;6.82;80.95
39773;BME280;25451;51.960;6.250;2022-12-01T05:25:52;102602.13;;;6.80;80.59
39773;BME280;25451;51.960;6.250;2022-12-01T05:28:18;102605.00;;;6.78;80.89
39773;BME280;25451;51.960;6.250;2022-12-01T05:30:43;102600.41;;;6.70;80.74
39773;BME280;25451;51.960;6.250;2022-12-01T05:33:08;102595.63;;;6.64;80.76
39773;BME280;25451;51.960;6.250;2022-12-01T05:35:34;102609.00;;;6.76;81.38
39773;BME280;25451;51.960;6.250;2022-12-01T05:37:59;102604.53;;;6.75;81.03
39773;BME280;25451;51.960;6.250;2022-12-01T05:40:25;102603.84;;;6.72;80.79
39773;BME280;25451;51.960;6.250;2022-12-01T05:42:50;102591.53;;;6.60;81.09
39773;BME280;25451;51.960;6.250;2022-12-01T05:45:15;102602.97;;;6.72;81.09
39773;BME280;25451;51.960;6.250;2022-12-01T05:47:41;102591.00;;;6.65;80.79
39773;BME280;25451;51.960;6.250;2022-12-01T05:50:06;102602.28;;;6.70;80.99
39773;BME280;25451;51.960;6.250;2022-12-01T05:52:33;102604.03;;;6.71;80.73
39773;BME280;25451;51.960;6.250;2022-12-01T05:54:59;102609.69;;;6.69;80.43
39773;BME280;25451;51.960;6.250;2022-12-01T05:57:24;102599.91;;;6.67;80.66
39773;BME280;25451;51.960;6.250;2022-12-01T05:59:49;102602.50;;;6.60;80.57
39773;BME280;25451;51.960;6.250;2022-12-01T06:02:15;102616.38;;;6.67;80.91
39773;BME280;25451;51.960;6.250;2022-12-01T06:04:40;102618.25;;;6.66;80.88
39773;BME280;25451;51.960;6.250;2022-12-01T06:07:05;102616.38;;;6.67;80.43
39773;BME280;25451;51.960;6.250;2022-12-01T06:09:30;102617.25;;;6.67;81.08
39773;BME280;25451;51.960;6.250;2022-12-01T06:11:56;102602.50;;;6.60;80.42
39773;BME280;25451;51.960;6.250;2022-12-01T06:14:21;102612.09;;;6.64;80.91
39773;BME280;25451;51.960;6.250;2022-12-01T06:16:46;102615.69;;;6.65;80.92
39773;BME280;25451;51.960;6.250;2022-12-01T06:19:11;102615.53;;;6.66;80.81
39773;BME280;25451;51.960;6.250;2022-12-01T06:21:37;102620.00;;;6.67;80.95
39773;BME280;25451;51.960;6.250;2022-12-01T06:24:02;102623.41;;;6.69;80.48
39773;BME280;25451;51.960;6.250;2022-12-01T06:26:28;102616.56;;;6.65;80.57
39773;BME280;25451;51.960;6.250;2022-12-01T06:28:55;102620.81;;;6.68;81.09
39773;BME280;25451;51.960;6.250;2022-12-01T06:31:20;102627.34;;;6.67;80.49
39773;BME280;25451;51.960;6.250;2022-12-01T06:33:45;102620.31;;;6.64;80.42
39773;BME280;25451;51.960;6.250;2022-12-01T06:36:10;102622.19;;;6.64;80.39
39773;BME280;25451;51.960;6.250;2022-12-01T06:38:36;102621.53;;;6.62;80.79
39773;BME280;25451;51.960;6.250;2022-12-01T06:41:02;102628.94;;;6.61;80.48
39773;BME280;25451;51.960;6.250;2022-12-01T06:43:29;102622.91;;;6.58;80.52
39773;BME280;25451;51.960;6.250;2022-12-01T06:45:54;102619.66;;;6.54;80.58
39773;BME280;25451;51.960;6.250;2022-12-01T06:48:20;102635.44;;;6.60;80.89
39773;BME280;25451;51.960;6.250;2022-12-01T06:50:45;102632.69;;;6.60;80.41
39773;BME280;25451;51.960;6.250;2022-12-01T06:53:10;102629.44;;;6.57;80.31
39773;BME280;25451;51.960;6.250;2022-12-01T06:55:36;102632.69;;;6.52;80.35
39773;BME280;25451;51.960;6.250;2022-12-01T06:58:03;102633.22;;;6.48;80.36
39773;BME280;25451;51.960;6.250;2022-12-01T07:00:29;102635.13;;;6.55;80.79
39773;BME280;25451;51.960;6.250;2022-12-01T07:02:54;102639.72;;;6.55;80.78
39773;BME280;25451;51.960;6.250;2022-12-01T07:05:19;102632.00;;;6.50;80.16
39773;BME280;25451;51.960;6.250;2022-12-01T07:07:45;102646.22;;;6.54;80.58
39773;BME280;25451;51.960;6.250;2022-12-01T07:10:11;102649.84;;;6.54;80.26
39773;BME280;25451;51.960;6.250;2022-12-01T07:12:37;102654.31;;;6.55;80.40
39773;BME280;25451;51.960;6.250;2022-12-01T07:15:03;102649.66;;;6.56;80.40
39773;BME280;25451;51.960;6.250;2022-12-01T07:17:29;102656.69;;;6.58;80.59
39773;BME280;25451;51.960;6.250;2022-12-01T07:19:54;102645.03;;;6.56;80.70
39773;BME280;25451;51.960;6.250;2022-12-01T07:22:19;102649.31;;;6.59;80.55
39773;BME280;25451;51.960;6.250;2022-12-01T07:24:45;102639.22;;;6.51;80.43
39773;BME280;25451;51.960;6.250;2022-12-01T07:27:10;102656.38;;;6.61;80.53
39773;BME280;25451;51.960;6.250;2022-12-01T07:29:36;102658.25;;;6.61;80.17
39773;BME280;25451;51.960;6.250;2022-12-01T07:32:01;102653.94;;;6.58;79.95
39773;BME280;25451;51.960;6.250;2022-12-01T07:34:26;102663.22;;;6.57;80.40
39773;BME280;25451;51.960;6.250;2022-12-01T07:36:51;102664.94;;;6.58;80.09
39773;BME280;25451;51.960;6.250;2022-12-01T07:39:17;102660.63;;;6.56;80.30
39773;BME280;25451;51.960;6.250;2022-12-01T07:41:42;102648.28;;;6.52;80.12
39773;BME280;25451;51.960;6.250;2022-12-01T07:44:09;102654.66;;;6.52;80.53
39773;BME280;25451;51.960;6.250;2022-12-01T07:46:34;102658.94;;;6.55;80.22
39773;BME280;25451;51.960;6.250;2022-12-01T07:49:00;102658.25;;;6.61;80.24
39773;BME280;25451;51.960;6.250;2022-12-01T07:51:25;102664.41;;;6.63;80.37
39773;BME280;25451;51.960;6.250;2022-12-01T07:53:52;102658.25;;;6.61;80.34
39773;BME280;25451;51.960;6.250;2022-12-01T07:56:19;102654.63;;;6.60;80.09
39773;BME280;25451;51.960;6.250;2022-12-01T07:58:44;102663.34;;;6.64;80.03
39773;BME280;25451;51.960;6.250;2022-12-01T08:01:12;102665.44;;;6.62;80.55
39773;BME280;25451;51.960;6.250;2022-12-01T08:03:39;102673.13;;;6.66;80.14
39773;BME280;25451;51.960;6.250;2022-12-01T08:06:05;102667.66;;;6.66;80.35
39773;BME280;25451;51.960;6.250;2022-12-01T08:08:33;102659.09;;;6.61;80.33
39773;BME280;25451;51.960;6.250;2022-12-01T08:11:00;102674.88;;;6.67;79.93
39773;BME280;25451;51.960;6.250;2022-12-01T08:13:26;102667.66;;;6.66;79.99
39773;BME280;25451;51.960;6.250;2022-12-01T08:15:51;102672.97;;;6.68;80.73
39773;BME280;25451;51.960;6.250;2022-12-01T08:18:17;102678.28;;;6.69;80.51
39773;BME280;25451;51.960;6.250;2022-12-01T08:20:42;102679.13;;;6.70;79.97
39773;BME280;25451;51.960;6.250;2022-12-01T08:23:07;102680.00;;;6.70;79.82
39773;BME280;25451;51.960;6.250;2022-12-01T08:25:33;102681.72;;;6.72;80.19
39773;BME280;25451;51.960;6.250;2022-12-01T08:27:59;102673.63;;;6.70;79.75
39773;BME280;25451;51.960;6.250;2022-12-01T08:30:24;102673.13;;;6.66;80.13
39773;BME280;25451;51.960;6.250;2022-12-01T08:32:54;102674.50;;;6.70;79.94
39773;BME280;25451;51.960;6.250;2022-12-01T08:35:19;102684.28;;;6.73;80.50
39773;BME280;25451;51.960;6.250;2022-12-01T08:37:45;102680.69;;;6.72;80.29
39773;BME280;25451;51.960;6.250;2022-12-01T08:40:10;102685.28;;;6.72;80.56
39773;BME280;25451;51.960;6.250;2022-12-01T08:42:36;102665.09;;;6.65;80.20
39773;BME280;25451;51.960;6.250;2022-12-01T08:45:02;102687.53;;;6.77;80.18
39773;BME280;25451;51.960;6.250;2022-12-01T08:47:27;102694.75;;;6.78;80.13
39773;BME280;25451;51.960;6.250;2022-12-01T08:49:53;102697.50;;;6.78;80.07
39773;BME280;25451;51.960;6.250;2022-12-01T08:52:18;102692.00;;;6.78;80.23
39773;BME280;25451;51.960;6.250;2022-12-01T08:54:44;102699.19;;;6.79;79.96
39773;BME280;25451;51.960;6.250;2022-12-01T08:57:09;102710.16;;;6.79;80.38
39773;BME280;25451;51.960;6.250;2022-12-01T08:59:35;102692.84;;;6.78;80.16
39773;BME280;25451;51.960;6.250;2022-12-01T09:02:00;102695.44;;;6.80;79.89
39773;BME280;25451;51.960;6.250;2022-12-01T09:04:26;102690.94;;;6.79;80.17
39773;BME280;25451;51.960;6.250;2022-12-01T09:06:54;102698.84;;;6.82;80.15
39773;BME280;25451;51.960;6.250;2022-12-01T09:09:22;102686.81;;;6.83;79.64
39773;BME280;25451;51.960;6.250;2022-12-01T09:11:49;102682.19;;;6.83;80.33
39773;BME280;25451;51.960;6.250;2022-12-01T09:14:16;102689.25;;;6.86;80.29
39773;BME280;25451;51.960;6.250;2022-12-01T09:16:43;102687.16;;;6.88;80.01
39773;BME280;25451;51.960;6.250;2022-12-01T09:19:09;102665.38;;;6.78;80.12
39773;BME280;25451;51.960;6.250;2022-12-01T09:21:35;102683.91;;;6.92;80.07
39773;BME280;25451;51.960;6.250;2022-12-01T09:24:05;102685.59;;;6.93;79.73
39773;BME280;25451;51.960;6.250;2022-12-01T09:26:31;102689.22;;;6.94;79.70
39773;BME280;25451;51.960;6.250;2022-12-01T09:29:00;102682.00;;;6.93;79.59
39773;BME280;25451;51.960;6.250;2022-12-01T09:31:26;102686.97;;;6.97;79.96
39773;BME280;25451;51.960;6.250;2022-12-01T09:34:12;102684.91;;;6.99;79.71
39773;BME280;25451;51.960;6.250;2022-12-01T09:36:38;102692.28;;;6.99;80.03
39773;BME280;25451;51.960;6.250;2022-12-01T09:39:05;102686.25;;;7.03;79.65
39773;BME280;25451;51.960;6.250;2022-12-01T09:41:38;102683.69;;;7.02;79.93
39773;BME280;25451;51.960;6.250;2022-12-01T09:47:15;102692.25;;;7.07;79.39
39773;BME280;25451;51.960;6.250;2022-12-01T09:49:55;102679.38;;;7.07;80.31
39773;BME280;25451;51.960;6.250;2022-12-01T09:52:23;102689.84;;;7.12;80.01
39773;BME280;25451;51.960;6.250;2022-12-01T09:54:51;102673.22;;;7.05;79.34
39773;BME280;25451;51.960;6.250;2022-12-01T09:57:34;102683.97;;;7.15;79.37
39773;BME280;25451;51.960;6.250;2022-12-01T10:00:09;102683.97;;;7.15;79.59
39773;BME280;25451;51.960;6.250;2022-12-01T10:02:39;102684.66;;;7.17;79.19
39773;BME280;25451;51.960;6.250;2022-12-01T10:05:12;102673.34;;;7.20;79.60
39773;BME280;25451;51.960;6.250;2022-12-01T10:07:43;102679.50;;;7.22;79.71
39773;BME280;25451;51.960;6.250;2022-12-01T10:10:17;102668.53;;;7.22;79.70
39773;BME280;25451;51.960;6.250;2022-12-01T10:12:46;102665.78;;;7.22;79.65
39773;BME280;25451;51.960;6.250;2022-12-01T10:26:31;102673.31;;;7.28;79.77
39773;BME280;25451;51.960;6.250;2022-12-01T10:34:15;102663.66;;;7.32;79.79
39773;BME280;25451;51.960;6.250;2022-12-01T10:36:41;102658.19;;;7.32;79.75
39773;BME280;25451;51.960;6.250;2022-12-01T10:39:15;102655.44;;;7.32;79.16
39773;BME280;25451;51.960;6.250;2022-12-01T10:41:42;102661.94;;;7.39;79.40
39773;BME280;25451;51.960;6.250;2022-12-01T10:44:08;102662.09;;;7.37;79.25
39773;BME280;25451;51.960;6.250;2022-12-01T10:46:42;102666.03;;;7.43;78.93
39773;BME280;25451;51.960;6.250;2022-12-01T10:49:11;102659.69;;;7.42;79.45
39773;BME280;25451;51.960;6.250;2022-12-01T10:51:47;102668.41;;;7.46;79.38
39773;BME280;25451;51.960;6.250;2022-12-01T10:54:13;102662.22;;;7.44;79.15
39773;BME280;25451;51.960;6.250;2022-12-01T10:56:39;102659.69;;;7.42;79.42
39773;BME280;25451;51.960;6.250;2022-12-01T10:59:21;102657.41;;;7.46;79.18
39773;BME280;25451;51.960;6.250;2022-12-01T11:01:47;102660.16;;;7.46;79.25
39773;BME280;25451;51.960;6.250;2022-12-01T11:04:42;102661.31;;;7.51;78.84
39773;BME280;25451;51.960;6.250;2022-12-01T11:07:17;102660.31;;;7.52;79.44
39773;BME280;25451;51.960;6.250;2022-12-01T11:09:45;102658.44;;;7.53;79.19
39773;BME280;25451;51.960;6.250;2022-12-01T11:12:16;102661.19;;;7.53;79.26
39773;BME280;25451;51.960;6.250;2022-12-01T11:14:42;102651.88;;;7.54;79.27
39773;BME280;25451;51.960;6.250;2022-12-01T11:19:47;102655.69;;;7.53;79.45
39773;BME280;25451;51.960;6.250;2022-12-01T11:22:28;102654.94;;;7.59;79.34
39773;BME280;25451;51.960;6.250;2022-12-01T11:27:23;102647.72;;;7.58;79.02
39773;BME280;25451;51.960;6.250;2022-12-01T11:29:57;102646.53;;;7.61;78.67
39773;BME280;25451;51.960;6.250;2022-12-01T11:32:26;102648.72;;;7.65;78.71
39773;BME280;25451;51.960;6.250;2022-12-01T11:34:56;102641.16;;;7.67;78.87
39773;BME280;25451;51.960;6.250;2022-12-01T11:37:31;102636.34;;;7.69;79.14
39773;BME280;25451;51.960;6.250;2022-12-01T11:40:15;102637.84;;;7.72;78.73
39773;BME280;25451;51.960;6.250;2022-12-01T11:42:47;102649.69;;;7.72;78.47
39773;BME280;25451;51.960;6.250;2022-12-01T11:51:01;102631.50;;;7.71;78.62
39773;BME280;25451;51.960;6.250;2022-12-01T11:53:31;102633.59;;;7.69;78.96
39773;BME280;25451;51.960;6.250;2022-12-01T11:58:42;102614.03;;;7.64;78.52
39773;BME280;25451;51.960;6.250;2022-12-01T12:01:34;102630.84;;;7.69;78.42
39773;BME280;25451;51.960;6.250;2022-12-01T12:04:22;102624.28;;;7.70;78.91
39773;BME280;25451;51.960;6.250;2022-12-01T12:15:07;102627.72;;;7.72;78.86
39773;BME280;25451;51.960;6.250;2022-12-01T12:28:33;102617.38;;;7.74;78.73
39773;BME280;25451;51.960;6.250;2022-12-01T12:31:10;102602.31;;;7.70;78.11
39773;BME280;25451;51.960;6.250;2022-12-01T12:36:18;102591.31;;;7.70;78.10
39773;BME280;25451;51.960;6.250;2022-12-01T12:41:51;102598.88;;;7.68;78.64
39773;BME280;25451;51.960;6.250;2022-12-01T12:44:46;102606.59;;;7.73;78.63
39773;BME280;25451;51.960;6.250;2022-12-01T12:47:35;102601.94;;;7.73;78.20
39773;BME280;25451;51.960;6.250;2022-12-01T12:52:46;102609.81;;;7.76;78.06
39773;BME280;25451;51.960;6.250;2022-12-01T12:55:22;102603.66;;;7.74;78.47
39773;BME280;25451;51.960;6.250;2022-12-01T12:57:55;102601.94;;;7.73;78.20
39773;BME280;25451;51.960;6.250;2022-12-01T13:00:28;102601.28;;;7.71;77.69
39773;BME280;25451;51.960;6.250;2022-12-01T13:03:14;102600.22;;;7.72;78.09
39773;BME280;25451;51.960;6.250;2022-12-01T13:05:49;102600.09;;;7.66;78.03
39773;BME280;25451;51.960;6.250;2022-12-01T13:08:27;102590.69;;;7.60;78.53
39773;BME280;25451;51.960;6.250;2022-12-01T13:11:08;102597.19;;;7.67;78.38
39773;BME280;25451;51.960;6.250;2022-12-01T13:13:39;102585.88;;;7.62;78.32
39773;BME280;25451;51.960;6.250;2022-12-01T13:16:12;102592.53;;;7.68;78.07
39773;BME280;25451;51.960;6.250;2022-12-01T13:18:43;102600.41;;;7.71;78.22
39773;BME280;25451;51.960;6.250;2022-12-01T13:21:15;102596.81;;;7.70;77.87
39773;BME280;25451;51.960;6.250;2022-12-01T13:23:42;102584.13;;;7.69;78.29
39773;BME280;25451;51.960;6.250;2022-12-01T13:26:08;102581.44;;;7.61;78.00
39773;BME280;25451;51.960;6.250;2022-12-01T13:28:52;102583.25;;;7.69;78.01
39773;BME280;25451;51.960;6.250;2022-12-01T13:31:19;102575.56;;;7.64;77.65
39773;BME280;25451;51.960;6.250;2022-12-01T13:33:54;102584.13;;;7.69;78.03
39773;BME280;25451;51.960;6.250;2022-12-01T13:36:20;102583.75;;;7.72;77.98
39773;BME280;25451;51.960;6.250;2022-12-01T13:39:12;102571.78;;;7.65;77.80
39773;BME280;25451;51.960;6.250;2022-12-01T13:41:42;102578.44;;;7.71;78.20
39773;BME280;25451;51.960;6.250;2022-12-01T13:44:26;102577.94;;;7.67;77.57
39773;BME280;25451;51.960;6.250;2022-12-01T13:47:03;102575.34;;;7.66;77.65
39773;BME280;25451;51.960;6.250;2022-12-01T13:49:43;102561.00;;;7.55;78.10
39773;BME280;25451;51.960;6.250;2022-12-01T13:57:45;102572.44;;;7.67;78.27
39773;BME280;25451;51.960;6.250;2022-12-01T14:00:25;102577.75;;;7.69;77.81
39773;BME280;25451;51.960;6.250;2022-12-01T14:08:35;102564.06;;;7.61;78.29
39773;BME280;25451;51.960;6.250;2022-12-01T14:14:09;102583.59;;;7.66;77.98
39773;BME280;25451;51.960;6.250;2022-12-01T14:16:52;102596.13;;;7.68;77.89
39773;BME280;25451;51.960;6.250;2022-12-01T14:22:04;102589.97;;;7.66;77.69
39773;BME280;25451;51.960;6.250;2022-12-01T14:27:01;102574.59;;;7.57;77.57
39773;BME280;25451;51.960;6.250;2022-12-01T14:29:35;102592.22;;;7.63;77.45
39773;BME280;25451;51.960;6.250;2022-12-01T14:34:33;102591.56;;;7.61;78.30
39773;BME280;25451;51.960;6.250;2022-12-01T14:37:39;102592.72;;;7.66;77.67
39773;BME280;25451;51.960;6.250;2022-12-01T14:40:12;102579.03;;;7.58;77.77
39773;BME280;25451;51.960;6.250;2022-12-01T14:42:42;102579.34;;;7.63;77.92
39773;BME280;25451;51.960;6.250;2022-12-01T14:45:34;102583.13;;;7.62;77.49
39773;BME280;25451;51.960;6.250;2022-12-01T14:48:04;102588.63;;;7.62;77.79
39773;BME280;25451;51.960;6.250;2022-12-01T14:50:39;102581.78;;;7.58;77.94
39773;BME280;25451;51.960;6.250;2022-12-01T14:55:49;102586.72;;;7.63;78.02
39773;BME280;25451;51.960;6.250;2022-12-01T14:58:20;102591.56;;;7.61;77.51